createdAt,value
2023-06-19T00:01:55.155Z,22.49
2023-06-19T00:04:23.167Z,22.46
2023-06-19T00:06:51.148Z,22.44
2023-06-19T00:09:19.351Z,22.38
2023-06-19T00:11:47.356Z,22.36
2023-06-19T00:14:15.224Z,22.30
2023-06-19T00:16:44.474Z,22.29
2023-06-19T00:19:12.842Z,22.25
2023-06-19T00:21:40.887Z,22.19
2023-06-19T00:24:08.845Z,22.17
2023-06-19T00:26:36.843Z,22.13
2023-06-19T00:29:04.701Z,22.09
2023-06-19T00:31:32.483Z,22.06
2023-06-19T00:34:01.742Z,22.05
2023-06-19T00:36:30.220Z,22.01
2023-06-19T00:38:58.155Z,22.00
2023-06-19T00:41:28.726Z,21.97
2023-06-19T00:43:56.671Z,21.95
2023-06-19T00:46:24.866Z,21.95
2023-06-19T00:48:52.853Z,21.92
2023-06-19T00:51:22.396Z,21.92
2023-06-19T00:53:50.362Z,21.92
2023-06-19T00:56:19.317Z,21.93
2023-06-19T00:58:47.189Z,21.89
2023-06-19T01:01:16.216Z,21.88
2023-06-19T01:03:44.290Z,21.85
2023-06-19T01:06:16.455Z,21.89
2023-06-19T01:08:53.214Z,21.90
2023-06-19T01:11:27.490Z,21.88
2023-06-19T01:14:00.902Z,21.91
2023-06-19T01:16:31.080Z,21.95
2023-06-19T01:19:00.085Z,21.93
2023-06-19T01:21:28.043Z,21.90
2023-06-19T01:23:58.659Z,21.92
2023-06-19T01:26:28.716Z,21.91
2023-06-19T01:28:57.918Z,21.83
2023-06-19T01:31:30.915Z,21.83
2023-06-19T01:34:01.050Z,21.78
2023-06-19T01:36:29.879Z,21.77
2023-06-19T01:39:00.596Z,21.72
2023-06-19T01:41:30.067Z,21.70
2023-06-19T01:43:59.873Z,21.67
2023-06-19T01:46:28.346Z,21.68
2023-06-19T01:48:56.970Z,21.66
2023-06-19T01:51:24.889Z,21.65
2023-06-19T01:53:52.775Z,21.67
2023-06-19T01:56:22.061Z,21.62
2023-06-19T01:58:52.726Z,21.64
2023-06-19T02:01:20.804Z,21.60
2023-06-19T02:03:48.817Z,21.61
2023-06-19T02:06:16.794Z,21.60
2023-06-19T02:08:44.761Z,21.55
2023-06-19T02:11:13.328Z,21.59
2023-06-19T02:13:43.523Z,21.60
2023-06-19T02:16:11.492Z,21.62
2023-06-19T02:18:39.341Z,21.58
2023-06-19T02:21:07.246Z,21.55
2023-06-19T02:23:36.531Z,21.56
2023-06-19T02:26:04.367Z,21.55
2023-06-19T02:28:32.258Z,21.55
2023-06-19T02:31:01.550Z,21.51
2023-06-19T02:33:29.979Z,21.50
2023-06-19T02:36:00.259Z,21.49
2023-06-19T02:38:30.903Z,21.51
2023-06-19T02:41:01.553Z,21.56
2023-06-19T02:43:29.525Z,21.51
2023-06-19T02:45:57.519Z,21.52
2023-06-19T02:48:26.899Z,21.58
2023-06-19T02:50:55.261Z,21.57
2023-06-19T02:53:23.158Z,21.53
2023-06-19T02:55:51.097Z,21.49
2023-06-19T02:58:19.187Z,21.49
2023-06-19T03:00:48.259Z,21.50
2023-06-19T03:03:18.067Z,21.50
2023-06-19T03:05:47.383Z,21.48
2023-06-19T03:08:15.298Z,21.47
2023-06-19T03:10:43.482Z,21.44
2023-06-19T03:13:11.524Z,21.42
2023-06-19T03:15:40.287Z,21.41
2023-06-19T03:18:10.523Z,21.41
2023-06-19T03:20:40.153Z,21.38
2023-06-19T03:23:09.468Z,21.38
2023-06-19T03:25:38.029Z,21.35
2023-06-19T03:28:06.510Z,21.26
2023-06-19T03:30:35.588Z,21.18
2023-06-19T03:33:03.647Z,21.14
2023-06-19T03:35:47.040Z,21.08
2023-06-19T03:38:42.377Z,21.06
2023-06-19T03:41:13.478Z,21.03
2023-06-19T03:43:41.604Z,20.94
2023-06-19T03:46:09.982Z,20.93
2023-06-19T03:48:37.922Z,20.86
2023-06-19T03:51:05.887Z,20.80
2023-06-19T03:53:34.273Z,20.79
2023-06-19T03:56:03.604Z,20.76
2023-06-19T03:58:31.623Z,20.68
2023-06-19T04:00:59.489Z,20.63
2023-06-19T04:03:27.471Z,20.56
2023-06-19T04:05:55.393Z,20.42
2023-06-19T04:08:23.264Z,20.40
2023-06-19T04:10:51.099Z,20.35
2023-06-19T04:13:20.370Z,20.36
2023-06-19T04:15:51.274Z,20.36
2023-06-19T04:18:19.467Z,20.35
2023-06-19T04:20:47.390Z,20.25
2023-06-19T04:23:15.235Z,20.29
2023-06-19T04:25:43.432Z,20.25
2023-06-19T04:28:13.359Z,20.22
2023-06-19T04:30:43.958Z,20.27
2023-06-19T04:33:12.330Z,20.33
2023-06-19T04:35:41.978Z,20.46
2023-06-19T04:38:10.501Z,20.33
2023-06-19T04:40:38.454Z,20.30
2023-06-19T04:43:06.888Z,20.29
2023-06-19T04:45:34.942Z,20.33
2023-06-19T04:48:04.516Z,20.33
2023-06-19T04:50:32.582Z,20.26
2023-06-19T04:53:00.516Z,20.28
2023-06-19T04:55:28.404Z,20.20
2023-06-19T04:57:56.763Z,20.24
2023-06-19T05:00:25.515Z,20.23
2023-06-19T05:02:53.784Z,20.26
2023-06-19T05:05:24.645Z,20.27
2023-06-19T05:07:52.745Z,20.29
2023-06-19T05:10:20.652Z,20.33
2023-06-19T05:12:48.525Z,20.33
2023-06-19T05:15:16.565Z,20.27
2023-06-19T05:17:47.495Z,20.31
2023-06-19T05:20:15.758Z,20.28
2023-06-19T05:22:45.000Z,20.37
2023-06-19T05:25:13.017Z,20.34
2023-06-19T05:27:40.991Z,20.40
2023-06-19T05:30:10.098Z,20.42
2023-06-19T05:32:38.064Z,20.36
2023-06-19T05:35:06.787Z,20.49
2023-06-19T05:37:34.920Z,20.57
2023-06-19T05:40:04.897Z,20.67
2023-06-19T05:42:32.802Z,20.65
2023-06-19T05:45:00.688Z,20.68
2023-06-19T05:47:28.772Z,20.75
2023-06-19T05:49:56.626Z,20.78
2023-06-19T05:52:24.727Z,20.89
2023-06-19T05:54:53.279Z,20.90
2023-06-19T05:57:22.916Z,20.95
2023-06-19T05:59:51.103Z,20.92
2023-06-19T06:02:20.200Z,21.01
2023-06-19T06:04:48.317Z,21.04
2023-06-19T06:07:16.296Z,21.13
2023-06-19T06:09:44.202Z,21.18
2023-06-19T06:12:12.792Z,21.24
2023-06-19T06:14:42.531Z,21.33
2023-06-19T06:17:11.149Z,21.46
2023-06-19T06:19:39.918Z,21.48
2023-06-19T06:22:08.164Z,21.52
2023-06-19T06:24:36.044Z,21.57
2023-06-19T06:27:04.066Z,21.62
2023-06-19T06:29:31.904Z,21.71
2023-06-19T06:32:07.564Z,21.73
2023-06-19T06:34:35.875Z,21.83
2023-06-19T06:37:06.266Z,21.74
2023-06-19T06:39:34.787Z,21.80
2023-06-19T06:42:02.686Z,21.81
2023-06-19T06:44:30.602Z,21.77
2023-06-19T06:46:58.686Z,21.79
2023-06-19T06:49:27.890Z,21.91
2023-06-19T06:51:58.134Z,21.89
2023-06-19T06:54:26.325Z,21.96
2023-06-19T06:56:57.409Z,22.15
2023-06-19T06:59:25.768Z,22.28
2023-06-19T07:01:53.597Z,22.25
2023-06-19T07:04:21.461Z,22.30
2023-06-19T07:06:50.783Z,22.31
2023-06-19T07:09:19.153Z,22.23
2023-06-19T07:11:47.080Z,22.19
2023-06-19T07:14:14.969Z,22.37
2023-06-19T07:16:42.844Z,22.45
2023-06-19T07:19:10.749Z,22.46
2023-06-19T07:21:39.583Z,22.49
2023-06-19T07:24:09.358Z,22.45
2023-06-19T07:26:37.353Z,22.50
2023-06-19T07:29:05.215Z,22.54
2023-06-19T07:31:33.397Z,22.49
2023-06-19T07:34:01.227Z,22.64
2023-06-19T07:36:29.106Z,22.79
2023-06-19T07:38:57.475Z,22.85
2023-06-19T07:41:26.683Z,22.85
2023-06-19T07:43:54.699Z,22.77
2023-06-19T07:46:22.572Z,22.77
2023-06-19T07:48:50.487Z,22.77
2023-06-19T07:51:18.373Z,22.89
2023-06-19T07:53:46.204Z,22.92
2023-06-19T07:56:14.127Z,22.98
2023-06-19T07:58:43.398Z,22.95
2023-06-19T08:01:11.538Z,22.91
2023-06-19T08:03:39.929Z,22.98
2023-06-19T08:06:08.063Z,22.93
2023-06-19T08:08:35.942Z,22.91
2023-06-19T08:11:04.036Z,22.95
2023-06-19T08:13:31.919Z,22.96
2023-06-19T08:16:01.169Z,22.99
2023-06-19T08:18:29.034Z,22.99
2023-06-19T08:20:57.163Z,23.08
2023-06-19T08:23:24.984Z,23.03
2023-06-19T08:25:53.183Z,23.07
2023-06-19T08:28:21.131Z,23.29
2023-06-19T08:30:49.802Z,23.38
2023-06-19T08:33:19.868Z,23.45
2023-06-19T08:35:49.462Z,23.48
2023-06-19T08:38:17.387Z,23.58
2023-06-19T08:40:46.340Z,23.64
2023-06-19T08:43:15.077Z,23.76
2023-06-19T08:45:43.474Z,23.94
2023-06-19T08:48:16.468Z,23.90
2023-06-19T08:50:46.230Z,23.95
2023-06-19T08:53:14.866Z,24.13
2023-06-19T08:55:43.300Z,24.20
2023-06-19T08:58:13.339Z,24.32
2023-06-19T09:00:41.796Z,24.47
2023-06-19T09:03:14.582Z,24.47
2023-06-19T09:05:51.413Z,24.63
2023-06-19T09:08:20.705Z,24.68
2023-06-19T09:11:00.095Z,24.87
2023-06-19T09:13:29.800Z,24.89
2023-06-19T09:16:03.741Z,24.94
2023-06-19T09:18:32.989Z,24.91
2023-06-19T09:21:02.228Z,24.94
2023-06-19T09:23:30.126Z,24.94
2023-06-19T09:26:01.347Z,24.97
2023-06-19T09:28:33.937Z,25.16
2023-06-19T09:31:03.296Z,25.11
2023-06-19T09:33:33.730Z,25.37
2023-06-19T09:36:05.445Z,25.39
2023-06-19T09:38:34.780Z,25.55
2023-06-19T09:41:04.973Z,25.63
2023-06-19T09:43:36.784Z,25.88
2023-06-19T09:46:06.110Z,25.79
2023-06-19T09:48:35.958Z,25.85
2023-06-19T09:51:13.012Z,25.82
2023-06-19T09:53:41.925Z,26.00
2023-06-19T09:56:10.148Z,26.11
2023-06-19T09:58:39.337Z,26.20
2023-06-19T10:01:08.742Z,26.13
2023-06-19T10:03:38.690Z,26.12
2023-06-19T10:06:08.237Z,26.19
2023-06-19T10:08:41.587Z,26.16
2023-06-19T10:11:09.615Z,26.15
2023-06-19T10:13:39.914Z,26.20
2023-06-19T10:16:08.349Z,26.15
2023-06-19T10:18:48.229Z,26.24
2023-06-19T10:21:19.597Z,26.41
2023-06-19T10:23:56.059Z,26.45
2023-06-19T10:26:33.939Z,26.40
2023-06-19T10:29:02.279Z,26.39
2023-06-19T10:31:30.784Z,26.59
2023-06-19T10:33:59.078Z,26.55
2023-06-19T10:36:28.509Z,26.64
2023-06-19T10:38:56.853Z,26.57
2023-06-19T10:41:26.419Z,26.53
2023-06-19T10:43:59.179Z,26.66
2023-06-19T10:46:32.167Z,26.69
2023-06-19T10:49:02.503Z,26.66
2023-06-19T10:51:32.373Z,26.70
2023-06-19T10:54:00.273Z,26.55
2023-06-19T10:56:28.903Z,26.54
2023-06-19T10:59:01.138Z,26.67
2023-06-19T11:01:39.970Z,26.73
2023-06-19T11:04:09.532Z,26.54
2023-06-19T11:06:40.176Z,26.40
2023-06-19T11:09:09.826Z,26.26
2023-06-19T11:14:45.521Z,26.38
2023-06-19T11:17:13.825Z,26.36
2023-06-19T11:19:44.601Z,26.53
2023-06-19T11:22:13.219Z,26.57
2023-06-19T11:24:46.675Z,26.73
2023-06-19T11:27:28.238Z,26.71
2023-06-19T11:30:01.416Z,26.69
2023-06-19T11:32:33.551Z,26.68
2023-06-19T11:35:08.992Z,26.67
2023-06-19T11:37:37.262Z,26.62
2023-06-19T11:40:13.219Z,26.69
2023-06-19T11:42:49.891Z,26.94
2023-06-19T11:45:19.806Z,26.99
2023-06-19T11:47:48.522Z,26.99
2023-06-19T11:50:20.346Z,27.09
2023-06-19T11:52:49.002Z,27.02
2023-06-19T11:55:17.972Z,27.15
2023-06-19T11:57:45.925Z,27.22
2023-06-19T12:00:19.444Z,27.22
2023-06-19T12:02:49.041Z,27.24
2023-06-19T12:05:17.793Z,27.13
2023-06-19T12:07:45.608Z,27.24
2023-06-19T12:10:13.456Z,27.21
2023-06-19T12:12:41.964Z,27.24
2023-06-19T12:15:10.154Z,27.45
2023-06-19T12:17:39.538Z,27.57
2023-06-19T12:20:09.782Z,27.74
2023-06-19T12:22:37.872Z,27.69
2023-06-19T12:25:06.112Z,27.79
2023-06-19T12:27:34.816Z,27.89
2023-06-19T12:30:03.503Z,27.73
2023-06-19T12:32:31.685Z,27.60
2023-06-19T12:35:01.007Z,27.67
2023-06-19T12:37:29.196Z,27.75
2023-06-19T12:39:57.031Z,27.81
2023-06-19T12:42:24.907Z,27.91
2023-06-19T12:44:52.700Z,27.72
2023-06-19T12:47:21.889Z,27.70
2023-06-19T12:49:49.943Z,27.74
2023-06-19T12:52:19.168Z,27.67
2023-06-19T12:54:47.087Z,27.74
2023-06-19T12:57:14.928Z,27.90
2023-06-19T12:59:42.808Z,27.77
2023-06-19T13:02:12.733Z,27.64
2023-06-19T13:04:43.242Z,27.59
2023-06-19T13:07:11.102Z,27.67
2023-06-19T13:09:40.478Z,27.61
2023-06-19T13:12:09.325Z,27.54
2023-06-19T13:14:38.547Z,27.59
2023-06-19T13:17:07.277Z,27.35
2023-06-19T13:19:35.968Z,27.48
2023-06-19T13:22:03.980Z,27.48
2023-06-19T13:24:31.896Z,27.63
2023-06-19T13:27:01.349Z,27.61
2023-06-19T13:29:29.681Z,27.67
2023-06-19T13:31:57.654Z,27.66
2023-06-19T13:34:25.810Z,27.71
2023-06-19T13:36:53.696Z,27.77
2023-06-19T13:39:21.627Z,27.81
2023-06-19T13:41:49.857Z,27.92
2023-06-19T13:44:20.037Z,27.96
2023-06-19T13:46:48.170Z,27.99
2023-06-19T13:49:16.105Z,28.02
2023-06-19T13:51:45.337Z,27.99
2023-06-19T13:54:14.199Z,27.99
2023-06-19T13:56:43.489Z,27.98
2023-06-19T13:59:11.611Z,27.94
2023-06-19T14:01:42.278Z,28.17
2023-06-19T14:04:10.744Z,28.27
2023-06-19T14:06:39.586Z,28.38
2023-06-19T14:09:07.454Z,28.42
2023-06-19T14:11:35.260Z,28.37
2023-06-19T14:14:03.461Z,28.40
2023-06-19T14:16:31.379Z,28.57
2023-06-19T14:19:00.662Z,28.47
2023-06-19T14:21:28.467Z,28.59
2023-06-19T14:23:56.348Z,28.72
2023-06-19T14:26:24.185Z,28.77
2023-06-19T14:28:56.274Z,28.66
2023-06-19T14:31:24.764Z,28.57
2023-06-19T14:33:52.848Z,28.52
2023-06-19T14:36:22.336Z,28.48
2023-06-19T14:38:50.722Z,28.54
2023-06-19T14:41:18.654Z,28.54
2023-06-19T14:43:46.970Z,28.72
2023-06-19T14:46:25.919Z,29.02
2023-06-19T14:49:02.952Z,28.92
2023-06-19T14:51:32.260Z,29.25
2023-06-19T14:54:00.124Z,29.44
2023-06-19T14:56:27.984Z,29.48
2023-06-19T14:58:55.952Z,29.64
2023-06-19T15:01:24.155Z,29.63
2023-06-19T15:03:52.217Z,29.68
2023-06-19T15:06:20.134Z,29.63
2023-06-19T15:08:49.309Z,29.48
2023-06-19T15:11:17.152Z,29.37
2023-06-19T15:13:45.041Z,29.31
2023-06-19T15:16:13.362Z,29.29
2023-06-19T15:18:41.694Z,29.27
2023-06-19T15:21:09.590Z,29.13
2023-06-19T15:23:37.521Z,29.25
2023-06-19T15:26:07.418Z,29.09
2023-06-19T15:28:36.756Z,29.22
2023-06-19T15:31:04.974Z,29.18
2023-06-19T15:33:32.788Z,29.16
2023-06-19T15:36:00.615Z,29.01
2023-06-19T15:38:29.344Z,29.00
2023-06-19T15:40:57.408Z,29.36
2023-06-19T15:43:29.747Z,30.28
2023-06-19T15:45:57.969Z,30.68
2023-06-19T15:48:26.163Z,31.41
2023-06-19T15:50:53.956Z,32.32
2023-06-19T15:53:21.758Z,32.39
2023-06-19T15:55:49.610Z,31.81
2023-06-19T15:58:17.388Z,30.90
2023-06-19T16:00:49.097Z,30.46
2023-06-19T16:03:17.121Z,30.28
2023-06-19T16:06:01.765Z,30.11
2023-06-19T16:08:34.640Z,29.77
2023-06-19T16:11:04.324Z,29.48
2023-06-19T16:13:32.336Z,29.27
2023-06-19T16:16:01.711Z,29.22
2023-06-19T16:18:29.738Z,28.81
2023-06-19T16:20:57.539Z,28.94
2023-06-19T16:23:25.904Z,28.63
2023-06-19T16:25:53.787Z,28.54
2023-06-19T16:28:21.662Z,28.43
2023-06-19T16:30:49.662Z,28.41
2023-06-19T16:33:19.046Z,28.27
2023-06-19T16:35:46.909Z,28.12
2023-06-19T16:38:14.763Z,28.08
2023-06-19T16:40:42.611Z,27.85
2023-06-19T16:43:12.000Z,27.88
2023-06-19T16:45:39.965Z,27.87
2023-06-19T16:48:07.820Z,27.67
2023-06-19T16:50:37.214Z,27.30
2023-06-19T16:53:07.115Z,27.18
2023-06-19T16:55:35.059Z,27.13
2023-06-19T16:58:02.935Z,27.05
2023-06-19T17:00:30.749Z,26.89
2023-06-19T17:02:59.802Z,26.78
2023-06-19T17:05:27.887Z,26.65
2023-06-19T17:07:57.311Z,26.65
2023-06-19T17:10:25.756Z,26.56
2023-06-19T17:12:54.052Z,26.53
2023-06-19T17:15:21.995Z,26.56
2023-06-19T17:17:49.915Z,26.53
2023-06-19T17:20:17.868Z,26.60
2023-06-19T17:22:45.753Z,26.60
2023-06-19T17:25:15.227Z,26.68
2023-06-19T17:27:43.826Z,26.64
2023-06-19T17:30:13.299Z,26.70
2023-06-19T17:32:45.043Z,26.67
2023-06-19T17:35:13.248Z,26.65
2023-06-19T17:37:42.497Z,26.71
2023-06-19T17:40:13.753Z,26.69
2023-06-19T17:42:43.335Z,26.72
2023-06-19T17:45:12.348Z,26.68
2023-06-19T17:47:40.599Z,26.74
2023-06-19T17:50:09.518Z,26.67
2023-06-19T17:52:38.285Z,26.62
2023-06-19T17:55:06.980Z,26.56
2023-06-19T17:57:34.990Z,26.65
2023-06-19T18:00:05.898Z,26.67
2023-06-19T18:02:40.250Z,26.52
2023-06-19T18:05:08.819Z,26.56
2023-06-19T18:07:36.661Z,26.46
2023-06-19T18:10:05.016Z,26.51
2023-06-19T18:12:33.013Z,26.49
2023-06-19T18:15:00.959Z,26.52
2023-06-19T18:17:30.445Z,26.39
2023-06-19T18:19:59.983Z,26.31
2023-06-19T18:22:27.976Z,26.27
2023-06-19T18:24:55.975Z,26.23
2023-06-19T18:27:23.851Z,26.24
2023-06-19T18:29:51.674Z,26.14
2023-06-19T18:32:19.509Z,26.12
2023-06-19T18:34:48.801Z,26.22
2023-06-19T18:37:16.707Z,26.18
2023-06-19T18:39:44.545Z,26.03
2023-06-19T18:42:12.719Z,26.05
2023-06-19T18:44:40.553Z,25.98
2023-06-19T18:47:08.815Z,25.96
2023-06-19T18:49:36.801Z,25.82
2023-06-19T18:52:07.088Z,25.81
2023-06-19T18:54:35.043Z,25.69
2023-06-19T18:57:02.987Z,25.71
2023-06-19T18:59:30.827Z,25.63
2023-06-19T19:01:58.818Z,25.57
2023-06-19T19:04:28.369Z,25.52
2023-06-19T19:06:56.173Z,25.51
2023-06-19T19:09:25.361Z,25.44
2023-06-19T19:11:54.131Z,25.36
2023-06-19T19:14:21.989Z,25.25
2023-06-19T19:16:49.837Z,25.25
2023-06-19T19:19:17.716Z,25.25
2023-06-19T19:21:45.573Z,25.06
2023-06-19T19:24:13.442Z,25.09
2023-06-19T19:26:44.050Z,25.10
2023-06-19T19:29:12.273Z,24.91
2023-06-19T19:31:40.402Z,24.94
2023-06-19T19:34:08.251Z,24.78
2023-06-19T19:36:36.890Z,24.75
2023-06-19T19:39:04.864Z,24.72
2023-06-19T19:41:32.925Z,24.64
2023-06-19T19:44:02.141Z,24.59
2023-06-19T19:46:30.339Z,24.56
2023-06-19T19:48:58.194Z,24.52
2023-06-19T19:51:26.157Z,24.41
2023-06-19T19:53:53.997Z,24.30
2023-06-19T19:56:21.953Z,24.29
2023-06-19T19:58:52.215Z,24.24
2023-06-19T20:01:21.768Z,24.19
2023-06-19T20:03:49.854Z,24.09
2023-06-19T20:06:17.769Z,23.99
2023-06-19T20:08:45.864Z,23.95
2023-06-19T20:11:14.284Z,23.96
2023-06-19T20:13:42.152Z,23.88
2023-06-19T20:16:11.105Z,23.93
2023-06-19T20:18:40.559Z,23.89
2023-06-19T20:21:08.460Z,23.84
2023-06-19T20:23:36.323Z,23.76
2023-06-19T20:26:04.205Z,23.77
2023-06-19T20:28:32.059Z,23.74
2023-06-19T20:30:59.915Z,23.72
2023-06-19T20:33:27.777Z,23.73
2023-06-19T20:35:57.059Z,23.69
2023-06-19T20:38:24.924Z,23.64
2023-06-19T20:40:52.792Z,23.61
2023-06-19T20:43:20.670Z,23.55
2023-06-19T20:45:48.703Z,23.51
2023-06-19T20:48:16.518Z,23.49
2023-06-19T20:50:44.438Z,23.45
2023-06-19T20:53:13.749Z,23.43
2023-06-19T20:55:41.580Z,23.31
2023-06-19T20:58:09.486Z,23.26
2023-06-19T21:00:37.361Z,23.22
2023-06-19T21:03:08.119Z,23.14
2023-06-19T21:05:38.003Z,23.17
2023-06-19T21:08:06.188Z,23.16
2023-06-19T21:10:35.392Z,23.10
2023-06-19T21:13:21.028Z,23.07
2023-06-19T21:15:50.720Z,23.05
2023-06-19T21:18:18.901Z,23.02
2023-06-19T21:20:46.723Z,22.97
2023-06-19T21:23:14.850Z,22.97
2023-06-19T21:25:44.034Z,22.92
2023-06-19T21:28:11.935Z,22.87
2023-06-19T21:30:39.732Z,22.87
2023-06-19T21:33:07.587Z,22.83
2023-06-19T21:35:35.546Z,22.83
2023-06-19T21:38:03.315Z,22.82
2023-06-19T21:40:31.194Z,22.73
2023-06-19T21:43:00.349Z,22.67
2023-06-19T21:45:28.211Z,22.69
2023-06-19T21:47:56.752Z,22.65
2023-06-19T21:50:24.893Z,22.60
2023-06-19T21:52:53.312Z,22.54
2023-06-19T21:55:21.286Z,22.52
2023-06-19T21:57:59.333Z,22.50
2023-06-19T22:00:30.180Z,22.47
2023-06-19T22:02:58.690Z,22.47
2023-06-19T22:05:27.289Z,22.42
2023-06-19T22:07:55.588Z,22.45
2023-06-19T22:10:24.774Z,22.42
2023-06-19T22:12:52.962Z,22.41
2023-06-19T22:15:20.808Z,22.39
2023-06-19T22:17:50.110Z,22.36
2023-06-19T22:20:19.762Z,22.33
2023-06-19T22:22:49.437Z,22.29
2023-06-19T22:25:17.737Z,22.26
2023-06-19T22:27:47.346Z,22.23
2023-06-19T22:30:16.658Z,22.24
2023-06-19T22:32:44.587Z,22.23
2023-06-19T22:35:13.912Z,22.17
2023-06-19T22:37:42.317Z,22.09
2023-06-19T22:40:11.263Z,22.11
2023-06-19T22:42:39.892Z,22.09
2023-06-19T22:45:08.662Z,22.05
2023-06-19T22:47:39.294Z,22.03
2023-06-19T22:50:08.490Z,21.93
2023-06-19T22:52:38.044Z,21.93
2023-06-19T22:55:07.056Z,21.87
2023-06-19T22:57:36.094Z,21.85
2023-06-19T23:00:08.934Z,21.81
2023-06-19T23:02:36.980Z,21.81
2023-06-19T23:05:05.389Z,21.81
2023-06-19T23:07:33.469Z,21.79
2023-06-19T23:10:04.777Z,21.73
2023-06-19T23:12:32.862Z,21.73
2023-06-19T23:15:00.820Z,21.69
2023-06-19T23:17:28.710Z,21.68
2023-06-19T23:19:59.128Z,21.66
2023-06-19T23:22:27.572Z,21.58
2023-06-19T23:24:55.708Z,21.61
2023-06-19T23:27:24.934Z,21.65
2023-06-19T23:29:57.004Z,21.61
2023-06-19T23:32:24.840Z,21.60
2023-06-19T23:34:52.784Z,21.60
2023-06-19T23:37:20.869Z,21.56
2023-06-19T23:39:48.643Z,21.57
2023-06-19T23:42:16.633Z,21.57
2023-06-19T23:44:45.810Z,21.55
2023-06-19T23:47:13.678Z,21.53
2023-06-19T23:49:42.670Z,21.51
2023-06-19T23:52:10.796Z,21.56
2023-06-19T23:54:38.579Z,21.52
2023-06-19T23:57:08.723Z,21.58
2023-06-19T23:59:36.573Z,21.58
